sensor_id;sensor_type;location;lat;lon;timestamp;P1;durP1;ratioP1;P2;durP2;ratioP2
55372;SDS011;41249;47.838;16.490;2023-04-03T00:01:16;546.28;;;183.68;;
55372;SDS011;41249;47.838;16.490;2023-04-03T00:03:43;552.72;;;186.27;;
55372;SDS011;41249;47.838;16.490;2023-04-03T00:06:10;527.72;;;176.85;;
55372;SDS011;41249;47.838;16.490;2023-04-03T00:08:38;520.15;;;174.20;;
55372;SDS011;41249;47.838;16.490;2023-04-03T00:11:05;566.58;;;190.48;;
55372;SDS011;41249;47.838;16.490;2023-04-03T00:13:33;564.22;;;189.20;;
55372;SDS011;41249;47.838;16.490;2023-04-03T00:16:00;558.78;;;187.57;;
55372;SDS011;41249;47.838;16.490;2023-04-03T00:18:27;547.83;;;182.95;;
55372;SDS011;41249;47.838;16.490;2023-04-03T00:20:53;514.45;;;171.40;;
55372;SDS011;41249;47.838;16.490;2023-04-03T00:23:20;520.95;;;173.40;;
55372;SDS011;41249;47.838;16.490;2023-04-03T00:25:47;536.15;;;179.10;;
55372;SDS011;41249;47.838;16.490;2023-04-03T00:28:13;503.13;;;167.18;;
55372;SDS011;41249;47.838;16.490;2023-04-03T00:30:40;474.98;;;156.85;;
55372;SDS011;41249;47.838;16.490;2023-04-03T00:33:07;493.30;;;164.45;;
55372;SDS011;41249;47.838;16.490;2023-04-03T00:35:36;479.48;;;159.77;;
55372;SDS011;41249;47.838;16.490;2023-04-03T00:38:04;451.52;;;150.43;;
55372;SDS011;41249;47.838;16.490;2023-04-03T00:40:35;503.70;;;169.38;;
55372;SDS011;41249;47.838;16.490;2023-04-03T00:43:09;508.02;;;171.07;;
55372;SDS011;41249;47.838;16.490;2023-04-03T00:45:40;499.80;;;168.13;;
55372;SDS011;41249;47.838;16.490;2023-04-03T00:50:51;521.00;;;176.77;;
55372;SDS011;41249;47.838;16.490;2023-04-03T00:53:22;493.48;;;166.32;;
55372;SDS011;41249;47.838;16.490;2023-04-03T00:55:54;476.20;;;159.13;;
55372;SDS011;41249;47.838;16.490;2023-04-03T00:58:25;454.23;;;151.55;;
55372;SDS011;41249;47.838;16.490;2023-04-03T01:00:59;462.85;;;154.48;;
55372;SDS011;41249;47.838;16.490;2023-04-03T01:03:31;434.13;;;144.13;;
55372;SDS011;41249;47.838;16.490;2023-04-03T01:05:58;430.70;;;146.13;;
55372;SDS011;41249;47.838;16.490;2023-04-03T01:08:25;400.13;;;135.57;;
55372;SDS011;41249;47.838;16.490;2023-04-03T01:10:51;404.98;;;136.65;;
55372;SDS011;41249;47.838;16.490;2023-04-03T01:13:29;441.35;;;146.95;;
55372;SDS011;41249;47.838;16.490;2023-04-03T01:16:02;437.95;;;146.23;;
55372;SDS011;41249;47.838;16.490;2023-04-03T01:18:31;444.52;;;147.88;;
55372;SDS011;41249;47.838;16.490;2023-04-03T01:27:00;484.05;;;163.43;;
55372;SDS011;41249;47.838;16.490;2023-04-03T01:29:30;490.17;;;166.25;;
55372;SDS011;41249;47.838;16.490;2023-04-03T01:31:57;512.13;;;173.95;;
55372;SDS011;41249;47.838;16.490;2023-04-03T01:34:26;512.53;;;174.55;;
55372;SDS011;41249;47.838;16.490;2023-04-03T01:36:54;526.00;;;178.82;;
55372;SDS011;41249;47.838;16.490;2023-04-03T01:39:21;520.38;;;176.85;;
55372;SDS011;41249;47.838;16.490;2023-04-03T01:41:49;535.67;;;182.90;;
55372;SDS011;41249;47.838;16.490;2023-04-03T01:44:17;520.22;;;176.23;;
55372;SDS011;41249;47.838;16.490;2023-04-03T01:46:44;520.92;;;177.05;;
55372;SDS011;41249;47.838;16.490;2023-04-03T01:49:10;495.25;;;168.20;;
55372;SDS011;41249;47.838;16.490;2023-04-03T01:51:37;483.60;;;162.20;;
55372;SDS011;41249;47.838;16.490;2023-04-03T01:54:04;495.30;;;167.27;;
55372;SDS011;41249;47.838;16.490;2023-04-03T01:56:31;499.95;;;169.05;;
55372;SDS011;41249;47.838;16.490;2023-04-03T01:58:57;488.77;;;164.68;;
55372;SDS011;41249;47.838;16.490;2023-04-03T02:01:24;509.85;;;172.05;;
55372;SDS011;41249;47.838;16.490;2023-04-03T02:03:52;528.38;;;178.77;;
55372;SDS011;41249;47.838;16.490;2023-04-03T02:06:19;518.97;;;175.52;;
55372;SDS011;41249;47.838;16.490;2023-04-03T02:08:45;509.58;;;171.43;;
55372;SDS011;41249;47.838;16.490;2023-04-03T02:11:12;502.40;;;170.30;;
55372;SDS011;41249;47.838;16.490;2023-04-03T02:13:39;507.02;;;171.95;;
55372;SDS011;41249;47.838;16.490;2023-04-03T02:16:06;495.00;;;166.95;;
55372;SDS011;41249;47.838;16.490;2023-04-03T02:18:34;384.25;;;134.57;;
55372;SDS011;41249;47.838;16.490;2023-04-03T02:21:01;400.83;;;137.02;;
55372;SDS011;41249;47.838;16.490;2023-04-03T02:23:27;429.70;;;145.00;;
55372;SDS011;41249;47.838;16.490;2023-04-03T02:26:02;438.02;;;147.07;;
55372;SDS011;41249;47.838;16.490;2023-04-03T02:28:29;457.98;;;155.05;;
55372;SDS011;41249;47.838;16.490;2023-04-03T02:30:56;406.67;;;138.75;;
55372;SDS011;41249;47.838;16.490;2023-04-03T02:33:23;373.17;;;131.05;;
55372;SDS011;41249;47.838;16.490;2023-04-03T02:35:56;392.30;;;135.82;;
55372;SDS011;41249;47.838;16.490;2023-04-03T02:40:50;434.20;;;145.45;;
55372;SDS011;41249;47.838;16.490;2023-04-03T02:43:18;436.83;;;146.73;;
55372;SDS011;41249;47.838;16.490;2023-04-03T02:45:45;434.80;;;146.05;;
55372;SDS011;41249;47.838;16.490;2023-04-03T02:48:11;435.48;;;145.93;;
55372;SDS011;41249;47.838;16.490;2023-04-03T02:50:38;456.75;;;154.02;;
55372;SDS011;41249;47.838;16.490;2023-04-03T02:53:05;447.65;;;150.27;;
55372;SDS011;41249;47.838;16.490;2023-04-03T02:55:31;454.20;;;152.35;;
55372;SDS011;41249;47.838;16.490;2023-04-03T02:57:58;450.75;;;151.07;;
55372;SDS011;41249;47.838;16.490;2023-04-03T03:00:24;438.38;;;147.73;;
55372;SDS011;41249;47.838;16.490;2023-04-03T03:02:51;458.52;;;155.25;;
55372;SDS011;41249;47.838;16.490;2023-04-03T03:05:18;474.10;;;161.55;;
55372;SDS011;41249;47.838;16.490;2023-04-03T03:07:44;459.20;;;156.30;;
55372;SDS011;41249;47.838;16.490;2023-04-03T03:10:11;393.08;;;137.50;;
55372;SDS011;41249;47.838;16.490;2023-04-03T03:12:38;442.60;;;149.38;;
55372;SDS011;41249;47.838;16.490;2023-04-03T03:15:04;460.73;;;155.73;;
55372;SDS011;41249;47.838;16.490;2023-04-03T03:17:31;477.40;;;162.32;;
55372;SDS011;41249;47.838;16.490;2023-04-03T03:19:58;505.95;;;171.65;;
55372;SDS011;41249;47.838;16.490;2023-04-03T03:22:25;468.27;;;158.02;;
55372;SDS011;41249;47.838;16.490;2023-04-03T03:24:52;473.42;;;159.32;;
55372;SDS011;41249;47.838;16.490;2023-04-03T03:27:19;469.58;;;158.30;;
55372;SDS011;41249;47.838;16.490;2023-04-03T03:29:46;538.33;;;186.07;;
55372;SDS011;41249;47.838;16.490;2023-04-03T03:32:13;524.17;;;180.80;;
55372;SDS011;41249;47.838;16.490;2023-04-03T03:34:39;497.20;;;168.63;;
55372;SDS011;41249;47.838;16.490;2023-04-03T03:37:06;466.20;;;156.63;;
55372;SDS011;41249;47.838;16.490;2023-04-03T03:39:33;453.15;;;152.95;;
55372;SDS011;41249;47.838;16.490;2023-04-03T03:41:59;442.73;;;149.82;;
55372;SDS011;41249;47.838;16.490;2023-04-03T03:44:26;457.40;;;155.18;;
55372;SDS011;41249;47.838;16.490;2023-04-03T03:46:55;488.58;;;165.48;;
55372;SDS011;41249;47.838;16.490;2023-04-03T03:49:22;442.65;;;149.90;;
55372;SDS011;41249;47.838;16.490;2023-04-03T03:51:49;462.52;;;156.75;;
55372;SDS011;41249;47.838;16.490;2023-04-03T03:54:16;499.85;;;171.45;;
55372;SDS011;41249;47.838;16.490;2023-04-03T03:56:43;470.35;;;159.70;;
55372;SDS011;41249;47.838;16.490;2023-04-03T03:59:11;486.75;;;166.02;;
55372;SDS011;41249;47.838;16.490;2023-04-03T04:01:38;434.95;;;147.35;;
55372;SDS011;41249;47.838;16.490;2023-04-03T04:04:06;489.75;;;167.20;;
55372;SDS011;41249;47.838;16.490;2023-04-03T04:06:32;445.75;;;151.52;;
55372;SDS011;41249;47.838;16.490;2023-04-03T04:08:59;500.17;;;171.02;;
55372;SDS011;41249;47.838;16.490;2023-04-03T04:11:26;331.15;;;122.43;;
55372;SDS011;41249;47.838;16.490;2023-04-03T04:13:53;287.83;;;111.22;;
55372;SDS011;41249;47.838;16.490;2023-04-03T04:16:20;303.00;;;114.70;;
55372;SDS011;41249;47.838;16.490;2023-04-03T04:18:47;369.75;;;130.38;;
55372;SDS011;41249;47.838;16.490;2023-04-03T04:21:13;361.13;;;128.48;;
55372;SDS011;41249;47.838;16.490;2023-04-03T04:23:40;381.17;;;133.23;;
55372;SDS011;41249;47.838;16.490;2023-04-03T04:26:07;410.00;;;140.48;;
55372;SDS011;41249;47.838;16.490;2023-04-03T04:28:33;441.05;;;149.00;;
55372;SDS011;41249;47.838;16.490;2023-04-03T04:31:00;440.70;;;149.88;;
55372;SDS011;41249;47.838;16.490;2023-04-03T04:33:26;412.85;;;140.05;;
55372;SDS011;41249;47.838;16.490;2023-04-03T04:35:53;441.38;;;148.43;;
55372;SDS011;41249;47.838;16.490;2023-04-03T04:38:20;445.63;;;150.13;;
55372;SDS011;41249;47.838;16.490;2023-04-03T04:40:47;465.63;;;157.43;;
55372;SDS011;41249;47.838;16.490;2023-04-03T04:43:14;478.00;;;162.82;;
55372;SDS011;41249;47.838;16.490;2023-04-03T04:45:41;492.80;;;168.05;;
55372;SDS011;41249;47.838;16.490;2023-04-03T04:48:08;502.88;;;172.15;;
55372;SDS011;41249;47.838;16.490;2023-04-03T04:50:34;500.80;;;171.75;;
55372;SDS011;41249;47.838;16.490;2023-04-03T04:53:01;485.73;;;165.38;;
55372;SDS011;41249;47.838;16.490;2023-04-03T04:55:28;491.63;;;167.68;;
55372;SDS011;41249;47.838;16.490;2023-04-03T04:57:54;541.90;;;186.43;;
55372;SDS011;41249;47.838;16.490;2023-04-03T05:00:21;513.20;;;175.05;;
55372;SDS011;41249;47.838;16.490;2023-04-03T05:02:48;528.90;;;181.85;;
55372;SDS011;41249;47.838;16.490;2023-04-03T05:05:14;511.02;;;173.70;;
55372;SDS011;41249;47.838;16.490;2023-04-03T05:07:41;513.45;;;176.25;;
55372;SDS011;41249;47.838;16.490;2023-04-03T05:10:08;519.30;;;179.20;;
55372;SDS011;41249;47.838;16.490;2023-04-03T05:12:35;546.58;;;188.07;;
55372;SDS011;41249;47.838;16.490;2023-04-03T05:15:02;551.63;;;190.93;;
55372;SDS011;41249;47.838;16.490;2023-04-03T05:17:29;544.22;;;187.88;;
55372;SDS011;41249;47.838;16.490;2023-04-03T05:19:55;571.40;;;197.82;;
55372;SDS011;41249;47.838;16.490;2023-04-03T05:22:22;546.38;;;187.30;;
55372;SDS011;41249;47.838;16.490;2023-04-03T05:24:49;515.47;;;176.00;;
55372;SDS011;41249;47.838;16.490;2023-04-03T05:27:15;455.63;;;152.80;;
55372;SDS011;41249;47.838;16.490;2023-04-03T05:29:43;484.77;;;163.82;;
55372;SDS011;41249;47.838;16.490;2023-04-03T05:32:10;512.92;;;175.15;;
55372;SDS011;41249;47.838;16.490;2023-04-03T05:34:37;508.55;;;172.95;;
55372;SDS011;41249;47.838;16.490;2023-04-03T05:37:04;522.17;;;177.98;;
55372;SDS011;41249;47.838;16.490;2023-04-03T05:39:31;507.88;;;172.98;;
55372;SDS011;41249;47.838;16.490;2023-04-03T05:41:58;502.30;;;170.35;;
55372;SDS011;41249;47.838;16.490;2023-04-03T05:44:25;477.85;;;161.50;;
55372;SDS011;41249;47.838;16.490;2023-04-03T05:46:52;453.88;;;154.13;;
55372;SDS011;41249;47.838;16.490;2023-04-03T05:49:18;1.77;;;1.52;;
55372;SDS011;41249;47.838;16.490;2023-04-03T05:51:45;3.17;;;1.80;;
55372;SDS011;41249;47.838;16.490;2023-04-03T05:54:13;3.00;;;1.50;;
55372;SDS011;41249;47.838;16.490;2023-04-03T05:56:44;2.38;;;1.85;;
55372;SDS011;41249;47.838;16.490;2023-04-03T05:59:11;3.03;;;1.48;;
55372;SDS011;41249;47.838;16.490;2023-04-03T06:01:38;2.20;;;1.40;;
55372;SDS011;41249;47.838;16.490;2023-04-03T06:04:04;3.00;;;1.67;;
55372;SDS011;41249;47.838;16.490;2023-04-03T06:06:45;3.50;;;2.13;;
55372;SDS011;41249;47.838;16.490;2023-04-03T06:09:18;3.97;;;1.90;;
55372;SDS011;41249;47.838;16.490;2023-04-03T06:11:49;3.80;;;1.92;;
55372;SDS011;41249;47.838;16.490;2023-04-03T06:14:16;3.03;;;1.70;;
55372;SDS011;41249;47.838;16.490;2023-04-03T06:16:43;3.60;;;2.15;;
55372;SDS011;41249;47.838;16.490;2023-04-03T06:19:10;3.13;;;2.38;;
55372;SDS011;41249;47.838;16.490;2023-04-03T06:21:38;3.72;;;2.45;;
55372;SDS011;41249;47.838;16.490;2023-04-03T06:24:05;3.42;;;1.90;;
55372;SDS011;41249;47.838;16.490;2023-04-03T06:26:32;2.08;;;1.30;;
55372;SDS011;41249;47.838;16.490;2023-04-03T06:28:59;1.38;;;1.27;;
55372;SDS011;41249;47.838;16.490;2023-04-03T06:31:26;2.20;;;1.70;;
55372;SDS011;41249;47.838;16.490;2023-04-03T06:33:53;3.42;;;1.83;;
55372;SDS011;41249;47.838;16.490;2023-04-03T06:36:20;4.00;;;2.20;;
55372;SDS011;41249;47.838;16.490;2023-04-03T06:38:47;3.35;;;1.95;;
55372;SDS011;41249;47.838;16.490;2023-04-03T06:41:14;4.18;;;2.33;;
55372;SDS011;41249;47.838;16.490;2023-04-03T06:43:43;6.38;;;1.73;;
55372;SDS011;41249;47.838;16.490;2023-04-03T06:46:17;3.08;;;1.90;;
55372;SDS011;41249;47.838;16.490;2023-04-03T06:48:46;3.15;;;1.95;;
55372;SDS011;41249;47.838;16.490;2023-04-03T06:51:20;2.38;;;1.80;;
55372;SDS011;41249;47.838;16.490;2023-04-03T06:53:49;2.90;;;1.75;;
55372;SDS011;41249;47.838;16.490;2023-04-03T06:56:16;4.57;;;1.52;;
55372;SDS011;41249;47.838;16.490;2023-04-03T06:58:44;4.55;;;2.13;;
55372;SDS011;41249;47.838;16.490;2023-04-03T07:01:12;2.92;;;1.73;;
55372;SDS011;41249;47.838;16.490;2023-04-03T07:03:40;1.90;;;1.67;;
55372;SDS011;41249;47.838;16.490;2023-04-03T07:06:07;2.50;;;1.73;;
55372;SDS011;41249;47.838;16.490;2023-04-03T07:08:37;3.42;;;2.20;;
55372;SDS011;41249;47.838;16.490;2023-04-03T07:11:05;4.65;;;1.70;;
55372;SDS011;41249;47.838;16.490;2023-04-03T07:13:33;5.63;;;2.53;;
55372;SDS011;41249;47.838;16.490;2023-04-03T07:15:59;4.28;;;1.98;;
55372;SDS011;41249;47.838;16.490;2023-04-03T07:18:26;3.88;;;2.22;;
55372;SDS011;41249;47.838;16.490;2023-04-03T07:20:53;3.13;;;1.95;;
55372;SDS011;41249;47.838;16.490;2023-04-03T07:23:20;4.30;;;2.50;;
55372;SDS011;41249;47.838;16.490;2023-04-03T07:25:47;2.75;;;1.60;;
55372;SDS011;41249;47.838;16.490;2023-04-03T07:28:15;2.78;;;1.67;;
55372;SDS011;41249;47.838;16.490;2023-04-03T07:30:44;3.28;;;1.83;;
55372;SDS011;41249;47.838;16.490;2023-04-03T07:33:15;5.85;;;2.38;;
55372;SDS011;41249;47.838;16.490;2023-04-03T07:35:44;3.75;;;2.10;;
55372;SDS011;41249;47.838;16.490;2023-04-03T07:38:11;3.72;;;2.20;;
55372;SDS011;41249;47.838;16.490;2023-04-03T07:40:38;3.20;;;2.00;;
55372;SDS011;41249;47.838;16.490;2023-04-03T07:43:06;3.97;;;2.25;;
55372;SDS011;41249;47.838;16.490;2023-04-03T07:45:34;6.88;;;2.15;;
55372;SDS011;41249;47.838;16.490;2023-04-03T07:48:02;3.08;;;2.08;;
55372;SDS011;41249;47.838;16.490;2023-04-03T07:50:29;3.10;;;2.08;;
55372;SDS011;41249;47.838;16.490;2023-04-03T07:52:57;3.83;;;2.15;;
55372;SDS011;41249;47.838;16.490;2023-04-03T07:55:24;3.28;;;2.00;;
55372;SDS011;41249;47.838;16.490;2023-04-03T07:57:52;3.55;;;1.90;;
55372;SDS011;41249;47.838;16.490;2023-04-03T08:00:18;4.45;;;2.00;;
55372;SDS011;41249;47.838;16.490;2023-04-03T08:02:46;6.60;;;2.88;;
55372;SDS011;41249;47.838;16.490;2023-04-03T08:05:18;55.65;;;42.33;;
55372;SDS011;41249;47.838;16.490;2023-04-03T08:07:45;3.75;;;2.10;;
55372;SDS011;41249;47.838;16.490;2023-04-03T08:10:13;2.03;;;1.45;;
55372;SDS011;41249;47.838;16.490;2023-04-03T08:12:40;4.82;;;1.88;;
55372;SDS011;41249;47.838;16.490;2023-04-03T08:15:08;57.33;;;45.00;;
55372;SDS011;41249;47.838;16.490;2023-04-03T08:17:35;5.38;;;2.40;;
55372;SDS011;41249;47.838;16.490;2023-04-03T08:20:02;4.60;;;2.00;;
55372;SDS011;41249;47.838;16.490;2023-04-03T08:22:31;2.40;;;1.55;;
55372;SDS011;41249;47.838;16.490;2023-04-03T08:24:57;10.68;;;9.57;;
55372;SDS011;41249;47.838;16.490;2023-04-03T08:27:25;4.97;;;2.20;;
55372;SDS011;41249;47.838;16.490;2023-04-03T08:29:53;3.10;;;1.58;;
55372;SDS011;41249;47.838;16.490;2023-04-03T08:32:21;2.65;;;1.50;;
55372;SDS011;41249;47.838;16.490;2023-04-03T08:34:48;3.10;;;2.03;;
55372;SDS011;41249;47.838;16.490;2023-04-03T08:37:15;2.08;;;1.55;;
55372;SDS011;41249;47.838;16.490;2023-04-03T08:39:42;3.88;;;2.00;;
55372;SDS011;41249;47.838;16.490;2023-04-03T08:45:17;4.40;;;3.72;;
55372;SDS011;41249;47.838;16.490;2023-04-03T08:48:06;4.90;;;1.60;;
55372;SDS011;41249;47.838;16.490;2023-04-03T08:50:45;3.83;;;2.10;;
55372;SDS011;41249;47.838;16.490;2023-04-03T08:53:16;3.55;;;2.05;;
55372;SDS011;41249;47.838;16.490;2023-04-03T08:55:50;3.95;;;1.80;;
55372;SDS011;41249;47.838;16.490;2023-04-03T09:01:17;3.78;;;1.98;;
55372;SDS011;41249;47.838;16.490;2023-04-03T09:03:47;2.40;;;1.45;;
55372;SDS011;41249;47.838;16.490;2023-04-03T09:06:23;5.22;;;2.63;;
55372;SDS011;41249;47.838;16.490;2023-04-03T09:14:54;3.30;;;1.55;;
55372;SDS011;41249;47.838;16.490;2023-04-03T09:20:13;2.08;;;1.55;;
55372;SDS011;41249;47.838;16.490;2023-04-03T09:22:45;3.33;;;1.60;;
55372;SDS011;41249;47.838;16.490;2023-04-03T09:25:20;2.58;;;1.48;;
55372;SDS011;41249;47.838;16.490;2023-04-03T09:27:47;2.60;;;1.55;;
55372;SDS011;41249;47.838;16.490;2023-04-03T09:30:15;3.55;;;2.13;;
55372;SDS011;41249;47.838;16.490;2023-04-03T09:32:44;3.53;;;1.88;;
55372;SDS011;41249;47.838;16.490;2023-04-03T09:35:16;3.15;;;1.77;;
55372;SDS011;41249;47.838;16.490;2023-04-03T09:40:43;3.53;;;1.98;;
55372;SDS011;41249;47.838;16.490;2023-04-03T09:45:48;3.00;;;1.83;;
55372;SDS011;41249;47.838;16.490;2023-04-03T09:48:17;2.88;;;1.50;;
55372;SDS011;41249;47.838;16.490;2023-04-03T09:53:41;2.25;;;1.95;;
55372;SDS011;41249;47.838;16.490;2023-04-03T09:58:45;2.58;;;1.42;;
55372;SDS011;41249;47.838;16.490;2023-04-03T10:04:06;2.55;;;1.42;;
55372;SDS011;41249;47.838;16.490;2023-04-03T10:06:45;3.55;;;1.95;;
55372;SDS011;41249;47.838;16.490;2023-04-03T10:09:24;4.80;;;2.17;;
55372;SDS011;41249;47.838;16.490;2023-04-03T10:12:02;3.05;;;1.70;;
55372;SDS011;41249;47.838;16.490;2023-04-03T10:14:34;2.65;;;1.80;;
55372;SDS011;41249;47.838;16.490;2023-04-03T10:17:09;2.35;;;1.92;;
55372;SDS011;41249;47.838;16.490;2023-04-03T10:19:48;4.18;;;2.05;;
55372;SDS011;41249;47.838;16.490;2023-04-03T10:27:54;2.50;;;1.83;;
55372;SDS011;41249;47.838;16.490;2023-04-03T10:38:43;3.60;;;1.50;;
55372;SDS011;41249;47.838;16.490;2023-04-03T10:47:22;6.07;;;1.83;;
55372;SDS011;41249;47.838;16.490;2023-04-03T10:52:57;3.13;;;1.83;;
55372;SDS011;41249;47.838;16.490;2023-04-03T10:58:32;2.30;;;1.53;;
55372;SDS011;41249;47.838;16.490;2023-04-03T11:01:05;6.88;;;2.10;;
55372;SDS011;41249;47.838;16.490;2023-04-03T11:03:38;2.35;;;1.35;;
55372;SDS011;41249;47.838;16.490;2023-04-03T11:06:11;2.72;;;1.75;;
55372;SDS011;41249;47.838;16.490;2023-04-03T11:11:36;3.65;;;1.88;;
55372;SDS011;41249;47.838;16.490;2023-04-03T11:14:22;4.32;;;2.10;;
55372;SDS011;41249;47.838;16.490;2023-04-03T11:17:05;2.92;;;1.83;;
55372;SDS011;41249;47.838;16.490;2023-04-03T11:19:47;3.50;;;2.10;;
55372;SDS011;41249;47.838;16.490;2023-04-03T11:22:24;4.57;;;1.65;;
55372;SDS011;41249;47.838;16.490;2023-04-03T11:27:44;1.83;;;1.27;;
55372;SDS011;41249;47.838;16.490;2023-04-03T11:30:32;2.13;;;1.65;;
55372;SDS011;41249;47.838;16.490;2023-04-03T11:35:43;3.97;;;2.05;;
55372;SDS011;41249;47.838;16.490;2023-04-03T11:38:34;4.13;;;1.98;;
55372;SDS011;41249;47.838;16.490;2023-04-03T11:41:03;3.13;;;2.08;;
55372;SDS011;41249;47.838;16.490;2023-04-03T11:43:33;3.33;;;1.58;;
55372;SDS011;41249;47.838;16.490;2023-04-03T11:46:06;2.90;;;1.70;;
55372;SDS011;41249;47.838;16.490;2023-04-03T11:48:41;3.45;;;1.95;;
55372;SDS011;41249;47.838;16.490;2023-04-03T11:53:43;1.65;;;1.23;;
55372;SDS011;41249;47.838;16.490;2023-04-03T12:04:20;2.67;;;1.40;;
55372;SDS011;41249;47.838;16.490;2023-04-03T12:15:11;4.95;;;1.58;;
55372;SDS011;41249;47.838;16.490;2023-04-03T12:17:49;5.70;;;1.73;;
55372;SDS011;41249;47.838;16.490;2023-04-03T12:23:28;2.83;;;1.95;;
55372;SDS011;41249;47.838;16.490;2023-04-03T12:26:01;4.68;;;1.92;;
55372;SDS011;41249;47.838;16.490;2023-04-03T12:28:35;2.58;;;1.50;;
55372;SDS011;41249;47.838;16.490;2023-04-03T12:31:05;2.63;;;1.70;;
55372;SDS011;41249;47.838;16.490;2023-04-03T12:33:38;2.28;;;1.65;;
55372;SDS011;41249;47.838;16.490;2023-04-03T12:36:15;3.45;;;2.20;;
55372;SDS011;41249;47.838;16.490;2023-04-03T12:42:00;2.90;;;1.50;;
55372;SDS011;41249;47.838;16.490;2023-04-03T12:45:03;3.70;;;1.73;;
55372;SDS011;41249;47.838;16.490;2023-04-03T12:47:43;2.80;;;1.80;;
55372;SDS011;41249;47.838;16.490;2023-04-03T12:50:16;2.45;;;1.58;;
55372;SDS011;41249;47.838;16.490;2023-04-03T12:52:50;3.10;;;1.65;;
55372;SDS011;41249;47.838;16.490;2023-04-03T12:55:22;3.20;;;1.67;;
55372;SDS011;41249;47.838;16.490;2023-04-03T12:57:49;3.92;;;1.60;;
55372;SDS011;41249;47.838;16.490;2023-04-03T13:00:26;3.38;;;2.10;;
55372;SDS011;41249;47.838;16.490;2023-04-03T13:02:56;2.97;;;1.70;;
55372;SDS011;41249;47.838;16.490;2023-04-03T13:05:23;2.28;;;1.60;;
55372;SDS011;41249;47.838;16.490;2023-04-03T13:08:00;2.42;;;1.83;;
55372;SDS011;41249;47.838;16.490;2023-04-03T13:10:29;3.42;;;1.77;;
55372;SDS011;41249;47.838;16.490;2023-04-03T13:12:57;5.97;;;2.33;;
55372;SDS011;41249;47.838;16.490;2023-04-03T13:15:46;2.03;;;1.50;;
55372;SDS011;41249;47.838;16.490;2023-04-03T13:18:32;3.88;;;1.70;;
55372;SDS011;41249;47.838;16.490;2023-04-03T13:21:21;2.45;;;1.52;;
55372;SDS011;41249;47.838;16.490;2023-04-03T13:23:58;4.05;;;2.45;;
55372;SDS011;41249;47.838;16.490;2023-04-03T13:26:40;3.88;;;2.33;;
55372;SDS011;41249;47.838;16.490;2023-04-03T13:29:17;2.28;;;1.30;;
55372;SDS011;41249;47.838;16.490;2023-04-03T13:31:56;2.95;;;1.70;;
55372;SDS011;41249;47.838;16.490;2023-04-03T13:34:25;3.33;;;1.73;;
55372;SDS011;41249;47.838;16.490;2023-04-03T13:36:59;2.90;;;1.20;;
55372;SDS011;41249;47.838;16.490;2023-04-03T13:39:29;2.00;;;1.52;;
55372;SDS011;41249;47.838;16.490;2023-04-03T13:41:59;2.17;;;1.30;;
55372;SDS011;41249;47.838;16.490;2023-04-03T13:44:32;1.30;;;1.05;;
55372;SDS011;41249;47.838;16.490;2023-04-03T13:47:22;2.38;;;1.65;;
55372;SDS011;41249;47.838;16.490;2023-04-03T13:52:34;7.07;;;2.00;;
55372;SDS011;41249;47.838;16.490;2023-04-03T13:55:30;2.78;;;1.67;;
55372;SDS011;41249;47.838;16.490;2023-04-03T14:00:36;4.90;;;1.85;;
55372;SDS011;41249;47.838;16.490;2023-04-03T14:03:16;4.65;;;2.00;;
55372;SDS011;41249;47.838;16.490;2023-04-03T14:05:49;3.47;;;2.08;;
55372;SDS011;41249;47.838;16.490;2023-04-03T14:08:17;4.18;;;1.85;;
55372;SDS011;41249;47.838;16.490;2023-04-03T14:10:51;3.97;;;1.73;;
55372;SDS011;41249;47.838;16.490;2023-04-03T14:13:19;3.88;;;1.50;;
55372;SDS011;41249;47.838;16.490;2023-04-03T14:15:47;2.95;;;1.60;;
55372;SDS011;41249;47.838;16.490;2023-04-03T14:18:16;2.28;;;1.55;;
55372;SDS011;41249;47.838;16.490;2023-04-03T14:20:44;3.47;;;1.70;;
55372;SDS011;41249;47.838;16.490;2023-04-03T14:23:12;3.55;;;1.83;;
55372;SDS011;41249;47.838;16.490;2023-04-03T14:25:39;2.20;;;1.45;;
55372;SDS011;41249;47.838;16.490;2023-04-03T14:28:14;3.92;;;1.42;;
55372;SDS011;41249;47.838;16.490;2023-04-03T14:30:42;2.88;;;1.90;;
55372;SDS011;41249;47.838;16.490;2023-04-03T14:33:12;6.28;;;2.40;;
55372;SDS011;41249;47.838;16.490;2023-04-03T14:35:41;1.25;;;0.98;;
55372;SDS011;41249;47.838;16.490;2023-04-03T14:38:20;3.75;;;2.00;;
55372;SDS011;41249;47.838;16.490;2023-04-03T14:40:49;3.75;;;1.80;;
55372;SDS011;41249;47.838;16.490;2023-04-03T14:43:16;2.35;;;1.48;;
55372;SDS011;41249;47.838;16.490;2023-04-03T14:45:43;5.75;;;1.38;;
55372;SDS011;41249;47.838;16.490;2023-04-03T14:48:20;2.38;;;0.90;;
55372;SDS011;41249;47.838;16.490;2023-04-03T14:50:50;2.65;;;1.85;;
55372;SDS011;41249;47.838;16.490;2023-04-03T14:53:31;3.65;;;1.80;;
55372;SDS011;41249;47.838;16.490;2023-04-03T14:56:21;2.35;;;1.33;;
55372;SDS011;41249;47.838;16.490;2023-04-03T14:58:54;3.50;;;1.75;;
55372;SDS011;41249;47.838;16.490;2023-04-03T15:01:22;1.42;;;1.10;;
55372;SDS011;41249;47.838;16.490;2023-04-03T15:03:50;2.40;;;1.30;;
55372;SDS011;41249;47.838;16.490;2023-04-03T15:06:16;3.92;;;1.75;;
55372;SDS011;41249;47.838;16.490;2023-04-03T15:08:43;2.78;;;1.45;;
55372;SDS011;41249;47.838;16.490;2023-04-03T15:11:12;3.20;;;1.40;;
55372;SDS011;41249;47.838;16.490;2023-04-03T15:13:39;2.60;;;1.67;;
55372;SDS011;41249;47.838;16.490;2023-04-03T15:16:16;3.90;;;1.40;;
55372;SDS011;41249;47.838;16.490;2023-04-03T15:18:44;2.45;;;1.35;;
55372;SDS011;41249;47.838;16.490;2023-04-03T15:21:13;4.20;;;1.98;;
55372;SDS011;41249;47.838;16.490;2023-04-03T15:23:41;2.15;;;1.10;;
55372;SDS011;41249;47.838;16.490;2023-04-03T15:26:09;2.28;;;1.45;;
55372;SDS011;41249;47.838;16.490;2023-04-03T15:28:39;2.28;;;1.60;;
55372;SDS011;41249;47.838;16.490;2023-04-03T15:31:08;5.18;;;2.17;;
55372;SDS011;41249;47.838;16.490;2023-04-03T15:33:36;2.50;;;1.33;;
55372;SDS011;41249;47.838;16.490;2023-04-03T15:36:03;2.53;;;1.55;;
55372;SDS011;41249;47.838;16.490;2023-04-03T15:38:42;3.38;;;1.60;;
55372;SDS011;41249;47.838;16.490;2023-04-03T15:41:08;3.85;;;1.50;;
55372;SDS011;41249;47.838;16.490;2023-04-03T15:43:35;8.93;;;1.85;;
55372;SDS011;41249;47.838;16.490;2023-04-03T15:46:02;5.82;;;1.90;;
55372;SDS011;41249;47.838;16.490;2023-04-03T15:48:29;6.15;;;1.70;;
55372;SDS011;41249;47.838;16.490;2023-04-03T15:50:56;2.83;;;1.50;;
55372;SDS011;41249;47.838;16.490;2023-04-03T15:53:24;3.08;;;1.58;;
55372;SDS011;41249;47.838;16.490;2023-04-03T15:55:51;2.30;;;1.40;;
55372;SDS011;41249;47.838;16.490;2023-04-03T15:58:17;3.35;;;1.67;;
55372;SDS011;41249;47.838;16.490;2023-04-03T16:00:44;2.97;;;1.42;;
55372;SDS011;41249;47.838;16.490;2023-04-03T16:03:12;2.70;;;1.60;;
55372;SDS011;41249;47.838;16.490;2023-04-03T16:05:47;3.15;;;1.55;;
55372;SDS011;41249;47.838;16.490;2023-04-03T16:08:14;3.70;;;1.27;;
55372;SDS011;41249;47.838;16.490;2023-04-03T16:10:41;2.78;;;1.38;;
55372;SDS011;41249;47.838;16.490;2023-04-03T16:13:07;1.80;;;1.30;;